createdAt,value
2023-03-30T00:02:24.305Z,75.43
2023-03-30T00:04:12.398Z,75.97
2023-03-30T00:07:37.897Z,75.43
2023-03-30T00:09:24.733Z,75.02
2023-03-30T00:10:57.603Z,75.32
2023-03-30T00:17:45.704Z,75.36
2023-03-30T00:19:26.809Z,75.56
2023-03-30T00:24:16.013Z,75.05
2023-03-30T00:28:18.133Z,75.60
2023-03-30T00:31:56.102Z,75.40
2023-03-30T00:34:17.149Z,75.29
2023-03-30T00:35:45.709Z,75.40
2023-03-30T00:38:12.582Z,75.60
2023-03-30T00:42:19.976Z,74.95
2023-03-30T00:45:14.048Z,74.88
2023-03-30T00:46:41.247Z,75.19
2023-03-30T00:50:03.258Z,74.79
2023-03-30T00:54:15.146Z,74.79
2023-03-30T01:04:38.049Z,73.83
2023-03-30T01:06:45.951Z,73.43
2023-03-30T01:09:17.659Z,73.53
2023-03-30T01:12:07.629Z,73.53
2023-03-30T01:16:12.152Z,75.36
2023-03-30T01:18:27.431Z,75.97
2023-03-30T01:22:43.689Z,76.37
2023-03-30T01:24:33.351Z,76.10
2023-03-30T01:26:02.700Z,76.31
2023-03-30T01:27:02.236Z,76.31
2023-03-30T01:28:23.241Z,75.90
2023-03-30T01:30:03.691Z,75.70
2023-03-30T01:31:55.084Z,75.49
2023-03-30T01:36:26.110Z,75.26
2023-03-30T01:42:03.428Z,74.65
2023-03-30T01:43:53.988Z,74.85
2023-03-30T01:46:52.226Z,74.24
2023-03-30T01:48:53.309Z,74.65
2023-03-30T01:51:44.016Z,74.55
2023-03-30T01:57:05.375Z,74.04
2023-03-30T01:58:37.146Z,74.14
2023-03-30T02:00:57.172Z,73.94
2023-03-30T02:04:39.582Z,73.53
2023-03-30T02:11:08.296Z,72.99
2023-03-30T02:15:22.012Z,73.39
2023-03-30T02:17:29.242Z,73.29
2023-03-30T02:19:06.082Z,73.29
2023-03-30T02:20:34.486Z,73.29
2023-03-30T02:22:53.552Z,73.53
2023-03-30T02:25:44.528Z,73.63
2023-03-30T02:29:46.610Z,73.63
2023-03-30T02:31:15.699Z,73.74
2023-03-30T02:32:44.260Z,73.53
2023-03-30T02:34:44.589Z,73.22
2023-03-30T02:37:24.023Z,73.13
2023-03-30T02:39:57.965Z,73.22
2023-03-30T02:43:33.943Z,73.33
2023-03-30T02:45:05.353Z,73.36
2023-03-30T02:47:04.010Z,73.02
2023-03-30T02:49:43.914Z,72.92
2023-03-30T02:51:33.634Z,72.82
2023-03-30T03:00:14.646Z,72.92
2023-03-30T03:04:29.806Z,73.06
2023-03-30T03:12:18.615Z,73.13
2023-03-30T03:15:36.404Z,73.06
2023-03-30T03:18:54.035Z,73.26
2023-03-30T03:21:34.853Z,72.82
2023-03-30T03:23:55.516Z,72.62
2023-03-30T03:39:43.493Z,72.52
2023-03-30T03:42:06.175Z,72.72
2023-03-30T03:47:07.102Z,72.28
2023-03-30T03:49:23.892Z,72.31
2023-03-30T03:51:23.947Z,71.97
2023-03-30T03:57:18.455Z,71.88
2023-03-30T03:59:49.495Z,72.17
2023-03-30T04:05:04.933Z,72.17
2023-03-30T04:08:28.512Z,72.28
2023-03-30T04:12:52.899Z,72.38
2023-03-30T04:20:19.307Z,72.69
2023-03-30T04:21:49.964Z,72.69
2023-03-30T04:25:22.056Z,72.65
2023-03-30T04:27:17.958Z,72.34
2023-03-30T04:28:46.860Z,72.55
2023-03-30T04:34:18.407Z,72.85
2023-03-30T04:37:02.303Z,72.65
2023-03-30T04:38:53.934Z,72.65
2023-03-30T04:40:41.757Z,72.52
2023-03-30T04:42:32.491Z,72.65
2023-03-30T04:44:00.554Z,72.85
2023-03-30T04:46:04.066Z,73.29
2023-03-30T04:48:08.550Z,72.85
2023-03-30T04:51:17.027Z,72.78
2023-03-30T04:59:04.007Z,73.70
2023-03-30T05:01:52.843Z,73.39
2023-03-30T05:05:22.090Z,74.14
2023-03-30T05:08:42.376Z,73.50
2023-03-30T05:17:06.243Z,74.34
2023-03-30T05:20:12.692Z,74.34
2023-03-30T05:24:27.227Z,75.36
2023-03-30T05:26:56.115Z,74.92
2023-03-30T05:28:45.187Z,74.71
2023-03-30T05:31:41.513Z,75.02
2023-03-30T05:33:49.104Z,75.52
2023-03-30T05:35:18.224Z,75.22
2023-03-30T05:37:39.232Z,75.73
2023-03-30T05:39:12.254Z,75.52
2023-03-30T05:42:05.867Z,75.22
2023-03-30T05:44:24.747Z,75.32
2023-03-30T05:51:27.788Z,74.17
2023-03-30T05:53:26.400Z,73.77
2023-03-30T05:55:24.262Z,73.46
2023-03-30T05:58:56.174Z,73.36
2023-03-30T06:00:26.133Z,73.36
2023-03-30T06:04:13.204Z,75.63
2023-03-30T06:07:38.613Z,76.75
2023-03-30T06:11:07.648Z,76.64
2023-03-30T06:15:41.367Z,76.44
2023-03-30T06:18:22.968Z,76.34
2023-03-30T06:29:09.502Z,78.81
2023-03-30T06:34:28.626Z,80.24
2023-03-30T06:42:34.202Z,82.06
2023-03-30T06:47:13.538Z,83.18
2023-03-30T06:48:44.693Z,83.69
2023-03-30T06:50:43.761Z,84.09
2023-03-30T06:54:39.896Z,83.99
2023-03-30T06:57:37.825Z,83.04
2023-03-30T06:59:36.739Z,82.94
2023-03-30T07:02:52.572Z,83.59
2023-03-30T07:09:03.366Z,82.19
2023-03-30T07:11:30.278Z,82.19
2023-03-30T07:15:04.530Z,81.78
2023-03-30T07:20:26.802Z,82.19
2023-03-30T07:23:26.764Z,82.50
2023-03-30T07:24:55.750Z,82.19
2023-03-30T07:28:45.414Z,81.92
2023-03-30T07:31:14.142Z,81.92
2023-03-30T07:32:44.990Z,81.68
2023-03-30T07:35:15.734Z,81.38
2023-03-30T07:36:45.739Z,81.27
2023-03-30T07:38:17.660Z,81.72
2023-03-30T07:40:16.558Z,81.38
2023-03-30T07:42:38.036Z,81.41
2023-03-30T07:49:43.922Z,82.64
2023-03-30T07:53:57.249Z,82.76
2023-03-30T07:57:47.580Z,82.90
2023-03-30T07:59:54.202Z,82.09
2023-03-30T08:03:02.714Z,81.38
2023-03-30T08:05:22.171Z,81.18
2023-03-30T08:09:39.926Z,79.98
2023-03-30T08:11:09.799Z,79.41
2023-03-30T08:12:40.966Z,79.47
2023-03-30T08:15:12.139Z,79.72
2023-03-30T08:18:11.833Z,78.56
2023-03-30T08:24:30.833Z,77.92
2023-03-30T08:27:00.208Z,77.68
2023-03-30T08:29:04.065Z,77.61
2023-03-30T08:33:11.313Z,77.28
2023-03-30T08:35:14.470Z,76.63
2023-03-30T08:39:10.351Z,75.65
2023-03-30T08:42:31.371Z,74.71
2023-03-30T08:49:11.303Z,74.03
2023-03-30T08:53:12.730Z,74.13
2023-03-30T08:57:40.152Z,73.80
2023-03-30T08:59:40.090Z,73.63
2023-03-30T09:03:19.741Z,73.53
2023-03-30T09:04:54.025Z,74.24
2023-03-30T09:07:32.233Z,73.73
2023-03-30T09:10:28.939Z,73.76
2023-03-30T09:12:57.166Z,74.07
2023-03-30T09:22:49.347Z,73.66
2023-03-30T09:26:44.582Z,72.96
2023-03-30T09:28:16.072Z,72.75
2023-03-30T09:35:10.141Z,71.57
2023-03-30T09:41:34.085Z,70.15
2023-03-30T09:46:42.248Z,69.74
2023-03-30T09:49:33.794Z,70.21
2023-03-30T09:52:42.195Z,70.79
2023-03-30T09:55:49.928Z,70.59
2023-03-30T09:58:10.058Z,70.29
2023-03-30T10:01:52.935Z,68.90
2023-03-30T10:03:56.336Z,67.99
2023-03-30T10:05:51.916Z,68.33
2023-03-30T10:07:21.711Z,67.63
2023-03-30T10:08:51.632Z,67.90
2023-03-30T10:16:32.194Z,67.76
2023-03-30T10:18:19.837Z,67.96
2023-03-30T10:20:21.159Z,67.99
2023-03-30T10:21:52.596Z,68.06
2023-03-30T10:23:21.512Z,67.76
2023-03-30T10:25:11.585Z,68.16
2023-03-30T10:30:09.121Z,68.23
2023-03-30T10:32:40.591Z,67.07
2023-03-30T10:38:38.736Z,57.98
2023-03-30T10:43:50.417Z,58.49
2023-03-30T10:51:34.732Z,60.32
2023-03-30T10:54:45.629Z,63.02
2023-03-30T10:56:12.717Z,63.29
2023-03-30T10:59:58.630Z,64.97
2023-03-30T11:01:27.814Z,65.20
2023-03-30T11:02:56.779Z,65.97
2023-03-30T11:08:21.980Z,66.44
2023-03-30T11:11:42.042Z,65.00
2023-03-30T11:14:40.604Z,64.16
2023-03-30T11:16:57.867Z,64.33
2023-03-30T11:18:58.514Z,64.16
2023-03-30T11:20:28.935Z,64.16
2023-03-30T11:22:30.212Z,64.06
2023-03-30T11:23:56.326Z,64.29
2023-03-30T11:26:16.930Z,65.13
2023-03-30T11:31:26.932Z,65.87
2023-03-30T11:33:27.583Z,65.43
2023-03-30T11:37:29.094Z,61.61
2023-03-30T11:39:36.005Z,59.53
2023-03-30T11:43:00.545Z,51.29
2023-03-30T11:44:30.446Z,50.24
2023-03-30T11:46:33.661Z,49.82
2023-03-30T11:50:53.218Z,56.11
2023-03-30T11:54:18.599Z,58.56
2023-03-30T11:56:41.069Z,59.60
2023-03-30T11:58:46.936Z,59.80
2023-03-30T12:00:16.033Z,60.00
2023-03-30T12:01:44.691Z,60.13
2023-03-30T12:04:56.971Z,61.07
2023-03-30T12:07:24.662Z,60.66
2023-03-30T12:12:13.697Z,59.70
2023-03-30T12:17:51.091Z,59.17
2023-03-30T12:20:17.985Z,59.50
2023-03-30T12:23:08.018Z,62.63
2023-03-30T12:24:28.500Z,61.90
2023-03-30T12:25:07.523Z,60.24
2023-03-30T12:26:07.768Z,59.83
2023-03-30T12:27:38.125Z,57.97
2023-03-30T12:31:29.553Z,58.58
2023-03-30T12:32:58.364Z,59.22
2023-03-30T12:34:48.052Z,59.72
2023-03-30T12:36:16.283Z,59.34
2023-03-30T12:39:05.692Z,55.85
2023-03-30T12:41:07.499Z,54.05
2023-03-30T12:45:43.861Z,54.70
2023-03-30T12:50:47.803Z,55.21
2023-03-30T12:53:17.046Z,56.47
2023-03-30T12:54:44.088Z,57.10
2023-03-30T12:58:22.560Z,58.56
2023-03-30T12:59:21.065Z,58.76
2023-03-30T13:00:21.077Z,59.00
2023-03-30T13:05:15.612Z,60.97
2023-03-30T13:08:21.140Z,60.33
2023-03-30T13:10:20.029Z,59.33
2023-03-30T13:12:49.642Z,59.00
2023-03-30T13:14:47.942Z,60.16
2023-03-30T13:17:06.425Z,60.26
2023-03-30T13:18:57.694Z,60.13
2023-03-30T13:21:16.943Z,59.93
2023-03-30T13:24:29.353Z,58.26
2023-03-30T13:25:57.367Z,55.74
2023-03-30T13:27:26.271Z,54.20
2023-03-30T13:31:10.455Z,50.84
2023-03-30T13:33:28.024Z,54.30
2023-03-30T13:38:27.375Z,56.52
2023-03-30T13:42:05.362Z,56.85
2023-03-30T13:44:57.446Z,56.07
2023-03-30T13:47:13.991Z,51.37
2023-03-30T13:48:43.714Z,51.39
2023-03-30T13:51:32.300Z,54.73
2023-03-30T13:54:25.034Z,55.08
2023-03-30T14:01:05.799Z,54.93
2023-03-30T14:05:06.338Z,55.41
2023-03-30T14:06:34.975Z,55.00
2023-03-30T14:09:04.794Z,52.57
2023-03-30T14:10:33.549Z,50.86
2023-03-30T14:16:24.217Z,49.57
2023-03-30T14:17:53.301Z,50.99
2023-03-30T14:20:54.405Z,52.97
2023-03-30T14:23:12.989Z,52.69
2023-03-30T14:24:42.870Z,53.22
2023-03-30T14:27:31.737Z,55.01
2023-03-30T14:32:09.853Z,56.77
2023-03-30T14:34:09.504Z,58.67
2023-03-30T14:36:09.406Z,59.99
2023-03-30T14:38:25.576Z,61.10
2023-03-30T14:41:54.010Z,61.10
2023-03-30T14:43:53.305Z,59.67
2023-03-30T14:50:45.756Z,56.77
2023-03-30T14:52:41.772Z,56.47
2023-03-30T14:56:20.447Z,57.20
2023-03-30T14:57:49.314Z,57.65
2023-03-30T14:59:39.601Z,59.47
2023-03-30T15:01:34.461Z,60.51
2023-03-30T15:08:30.535Z,61.00
2023-03-30T15:12:00.359Z,61.40
2023-03-30T15:15:10.569Z,62.24
2023-03-30T15:18:08.713Z,62.24
2023-03-30T15:19:39.501Z,62.34
2023-03-30T15:24:50.095Z,62.64
2023-03-30T15:27:15.050Z,62.41
2023-03-30T15:30:05.864Z,62.82
2023-03-30T15:33:34.591Z,64.36
2023-03-30T15:36:48.639Z,66.31
2023-03-30T15:38:18.049Z,66.52
2023-03-30T15:40:16.807Z,65.91
2023-03-30T15:43:05.498Z,65.78
2023-03-30T15:49:31.864Z,65.88
2023-03-30T15:51:30.821Z,64.90
2023-03-30T15:53:01.728Z,65.61
2023-03-30T15:54:58.578Z,64.59
2023-03-30T15:58:20.348Z,65.20
2023-03-30T16:01:07.764Z,64.87
2023-03-30T16:02:36.555Z,64.97
2023-03-30T16:05:00.336Z,65.57
2023-03-30T16:06:30.170Z,66.01
2023-03-30T16:08:00.152Z,66.35
2023-03-30T16:09:29.057Z,66.72
2023-03-30T16:11:00.105Z,67.32
2023-03-30T16:13:10.576Z,67.22
2023-03-30T16:16:21.241Z,66.95
2023-03-30T16:18:42.923Z,67.15
2023-03-30T16:24:53.865Z,66.27
2023-03-30T16:26:42.668Z,66.24
2023-03-30T16:28:31.473Z,65.73
2023-03-30T16:31:01.109Z,65.03
2023-03-30T16:34:19.566Z,64.32
2023-03-30T16:35:50.945Z,64.59
2023-03-30T16:40:30.104Z,64.45
2023-03-30T16:41:59.304Z,64.86
2023-03-30T16:46:10.448Z,64.04
2023-03-30T16:49:45.042Z,64.25
2023-03-30T16:51:39.190Z,64.15
2023-03-30T16:53:09.117Z,64.22
2023-03-30T16:55:09.929Z,64.02
2023-03-30T16:58:05.777Z,64.25
2023-03-30T16:59:35.632Z,63.75
2023-03-30T17:01:05.225Z,63.95
2023-03-30T17:04:53.018Z,63.75
2023-03-30T17:06:51.754Z,64.04
2023-03-30T17:08:49.869Z,63.84
2023-03-30T17:10:47.697Z,63.87
2023-03-30T17:13:07.664Z,63.64
2023-03-30T17:14:36.521Z,63.44
2023-03-30T17:17:03.772Z,64.18
2023-03-30T17:18:32.605Z,63.67
2023-03-30T17:20:01.477Z,63.87
2023-03-30T17:21:30.368Z,63.57
2023-03-30T17:23:00.683Z,63.27
2023-03-30T17:25:03.918Z,63.07
2023-03-30T17:27:00.831Z,63.37
2023-03-30T17:28:31.169Z,63.27
2023-03-30T17:30:01.075Z,63.27
2023-03-30T17:34:17.540Z,63.67
2023-03-30T17:45:04.315Z,63.90
2023-03-30T17:49:49.474Z,64.31
2023-03-30T17:51:16.467Z,64.21
2023-03-30T17:53:15.301Z,64.11
2023-03-30T17:54:45.312Z,64.28
2023-03-30T17:56:44.410Z,64.58
2023-03-30T17:59:41.370Z,65.53
2023-03-30T18:01:40.849Z,65.96
2023-03-30T18:03:38.570Z,66.06
2023-03-30T18:05:37.620Z,65.96
2023-03-30T18:07:07.172Z,65.86
2023-03-30T18:08:36.266Z,65.96
2023-03-30T18:13:02.011Z,66.67
2023-03-30T18:15:32.063Z,66.47
2023-03-30T18:20:08.066Z,66.27
2023-03-30T18:22:34.918Z,67.00
2023-03-30T18:25:03.834Z,67.41
2023-03-30T18:30:57.749Z,67.17
2023-03-30T18:34:15.280Z,67.03
2023-03-30T18:38:40.988Z,67.24
2023-03-30T18:41:09.805Z,66.94
2023-03-30T18:44:40.905Z,66.83
2023-03-30T18:46:08.133Z,66.83
2023-03-30T18:50:32.559Z,67.00
2023-03-30T18:53:30.960Z,67.21
2023-03-30T18:56:38.353Z,67.21
2023-03-30T18:57:38.316Z,67.41
2023-03-30T18:58:38.294Z,67.11
2023-03-30T19:04:02.311Z,68.15
2023-03-30T19:06:30.738Z,68.05
2023-03-30T19:08:29.729Z,68.26
2023-03-30T19:11:17.346Z,68.05
2023-03-30T19:13:46.142Z,68.35
2023-03-30T19:20:03.883Z,67.85
2023-03-30T19:26:52.430Z,69.40
2023-03-30T19:28:21.370Z,70.45
2023-03-30T19:30:19.935Z,70.76
2023-03-30T19:31:48.821Z,70.65
2023-03-30T19:35:18.376Z,70.96
2023-03-30T19:37:45.421Z,72.25
2023-03-30T19:41:02.256Z,72.55
2023-03-30T19:43:30.077Z,72.65
2023-03-30T19:45:50.499Z,73.06
2023-03-30T19:47:18.848Z,73.16
2023-03-30T19:49:08.519Z,72.96
2023-03-30T19:51:32.729Z,73.06
2023-03-30T19:56:32.403Z,73.26
2023-03-30T19:58:31.524Z,73.67
2023-03-30T20:00:28.876Z,73.36
2023-03-30T20:03:19.800Z,72.82
2023-03-30T20:07:18.032Z,73.43
2023-03-30T20:10:16.823Z,74.38
2023-03-30T20:14:42.702Z,74.58
2023-03-30T20:16:12.509Z,75.49
2023-03-30T20:21:56.409Z,76.10
2023-03-30T20:23:26.601Z,76.51
2023-03-30T20:26:44.034Z,76.68
2023-03-30T20:28:13.488Z,77.19
2023-03-30T20:30:11.758Z,77.19
2023-03-30T20:32:10.883Z,79.25
2023-03-30T20:35:29.438Z,80.72
2023-03-30T20:36:56.620Z,80.47
2023-03-30T20:39:17.127Z,80.37
2023-03-30T20:43:13.159Z,81.63
2023-03-30T20:44:42.542Z,80.98
2023-03-30T20:47:30.959Z,82.34
2023-03-30T20:50:49.709Z,82.95
2023-03-30T20:52:17.055Z,83.40
2023-03-30T20:56:35.683Z,82.85
2023-03-30T21:03:20.824Z,83.56
2023-03-30T21:05:21.808Z,83.91
2023-03-30T21:07:48.733Z,84.62
2023-03-30T21:10:53.280Z,85.03
2023-03-30T21:13:12.349Z,84.52
2023-03-30T21:15:59.039Z,83.76
2023-03-30T21:20:48.682Z,84.01
2023-03-30T21:23:40.095Z,84.11
2023-03-30T21:27:29.109Z,84.42
2023-03-30T21:31:43.458Z,83.84
2023-03-30T21:37:09.814Z,83.95
2023-03-30T21:40:50.908Z,84.59
2023-03-30T21:43:19.480Z,84.59
2023-03-30T21:45:08.525Z,84.80
2023-03-30T21:48:00.330Z,84.70
2023-03-30T21:49:48.923Z,84.50
2023-03-30T21:51:50.018Z,84.90
2023-03-30T21:53:17.031Z,84.45
2023-03-30T21:54:49.229Z,83.95
2023-03-30T21:58:02.375Z,83.64
2023-03-30T22:00:03.036Z,84.45
2023-03-30T22:02:01.848Z,84.35
2023-03-30T22:07:28.730Z,84.01
2023-03-30T22:09:34.462Z,84.05
2023-03-30T22:11:24.630Z,84.05
2023-03-30T22:16:30.153Z,84.05
2023-03-30T22:20:17.598Z,85.11
2023-03-30T22:22:36.416Z,84.97
2023-03-30T22:25:06.702Z,86.13
2023-03-30T22:27:06.613Z,85.41
2023-03-30T22:30:15.852Z,85.61
2023-03-30T22:33:38.398Z,85.41
2023-03-30T22:37:14.129Z,85.51
2023-03-30T22:38:43.983Z,85.11
2023-03-30T22:40:14.734Z,85.96
2023-03-30T22:43:36.561Z,85.75
2023-03-30T22:46:18.227Z,84.59
2023-03-30T22:49:07.270Z,85.35
2023-03-30T22:50:36.740Z,85.25
2023-03-30T22:52:07.998Z,85.75
2023-03-30T22:59:37.878Z,85.75
2023-03-30T23:02:49.603Z,85.25
2023-03-30T23:04:18.964Z,85.45
2023-03-30T23:08:05.596Z,84.90
2023-03-30T23:09:34.480Z,84.33
2023-03-30T23:11:04.667Z,85.05
2023-03-30T23:15:44.397Z,84.94
2023-03-30T23:19:01.660Z,84.64
2023-03-30T23:20:31.686Z,84.33
2023-03-30T23:24:49.198Z,84.67
2023-03-30T23:26:21.086Z,85.22
2023-03-30T23:29:47.496Z,84.58
2023-03-30T23:32:28.004Z,84.47
2023-03-30T23:36:45.198Z,84.78
2023-03-30T23:42:44.825Z,84.67
2023-03-30T23:44:12.546Z,84.92
2023-03-30T23:47:11.245Z,85.22
2023-03-30T23:50:32.128Z,85.47
2023-03-30T23:52:01.379Z,85.77
2023-03-30T23:54:01.392Z,85.74
2023-03-30T23:55:49.409Z,85.43
2023-03-30T23:57:48.666Z,85.88
2023-03-30T23:59:18.084Z,85.68
